• Join FlightAware (Why Join?)
  • Login
  • US Flag 
06:53AM EDT


 

Airport Tracker/Info


-or-


 

Live Flight TrackerFlight Track Log ✈ N789EX ✈ 23-Nov-2013 ✈ KMWH - KBFI

Flight Track Log - Related Links

Times and Time Zones

All times are in EST time to prevent confusion due to time zone crossing. See the N789EX flight status page for this flight to view local times or setup timezone preferences in your user account.

Time Position Orientation Groundspeed Altitude Reporting Facility
EST Latitude Longitude Course Direction KTS MPH feet Rate Location/Type
03:27PM 47.3525 -119.3622 68° East 225 259 7,100  Level Seattle Center
03:28PM 47.3764 -119.2744 68° East 235 270 6,900 -60 Descending Seattle Center
03:29PM 47.3803 -119.1872 86° East 248 285 7,000 60 Climbing Seattle Center
03:30PM 47.3619 -119.0856 105° East 259 298 7,100 1,680 Climbing Seattle Center
03:31PM 47.3381 -118.9839 109° East 266 306 10,500 1,620 Climbing Seattle Center
03:32PM 47.3097 -118.8689 110° East 297 342 10,400 -1,680 Descending Seattle Center
03:33PM 47.3008 -118.7444 96° East 292 336 7,100 -1,140 Descending Seattle Center
03:34PM 47.3389 -118.8139 309° West 264 304 8,100 2,580 Climbing Seattle Center
03:35PM 47.3511 -118.9300 279° West 287 330 12,400 3,900 Climbing Seattle Center
03:36PM 47.3603 -119.0589 276° West 315 362 16,100 2,520 Climbing Seattle Center
03:37PM 47.3725 -119.2114 277° West 388 447 17,600 1,740 Climbing Seattle Center
03:38PM 47.4033 -119.3803 285° West 422 486 19,700 2,580 Climbing Seattle Center
03:39PM 47.4375 -119.5594 286° West 445 512 22,900 3,000 Climbing Seattle Center
03:40PM 47.4708 -119.7392 285° West 453 521 25,800 2,460 Climbing Seattle Center
03:41PM 47.5069 -119.9267 286° West 472 543 28,000 1,980 Climbing Seattle Center
03:42PM 47.5425 -120.1183 285° West 482 555 29,900 900 Climbing Seattle Center
03:43PM 47.5747 -120.2883 286° West 428 493 29,900  Level Seattle Center
03:44PM 47.6022 -120.4478 284° West 403 464 30,000  Climbing Seattle Center
03:45PM 47.6311 -120.6064 285° West 400 460 29,900 -300 Descending Seattle Center
03:46PM 47.6631 -120.7958 284° West 395 455 29,500 360 Descending Seattle Center
03:47PM 47.6917 -120.9464 286° West 394 453 30,700 480 Climbing Seattle Center
03:48PM 47.7206 -121.1047 285° West 397 457 30,500 -120 Descending Seattle Center
03:49PM 47.7500 -121.2603 286° West 394 453 30,500  Level Seattle Center
03:50PM 47.7772 -121.4178 284° West 396 456 30,500  Level Seattle Center
03:51PM 47.8036 -121.5750 284° West 395 455 30,500  Level Seattle Center
03:52PM 47.8300 -121.7319 284° West 394 453 30,500  Level Seattle Center
03:53PM 47.8614 -121.9206 284° West 394 453 30,500  Level Seattle Center
03:54PM 47.8797 -122.0775 280° West 395 455 30,500  Level Seattle Center
03:55PM 47.8736 -122.2406 267° West 398 458 30,500  Level Seattle Center
03:56PM 47.8672 -122.4008 267° West 396 456 30,500  Level Seattle Center
03:57PM 47.8614 -122.5619 267° West 397 457 30,500  Level Seattle Center
03:58PM 47.8561 -122.7239 267° West 397 457 30,500  Level Seattle Center
03:59PM 47.8508 -122.8856 267° West 396 456 30,500  Level Seattle Center
04:00PM 47.8456 -123.0478 267° West 395 455 30,500  Level Seattle Center
04:01PM 47.8372 -123.2417 266° West 394 453 30,600  Climbing Seattle Center
04:02PM 47.8272 -123.4019 265° West 393 452 30,600 -180 Level Seattle Center
04:04PM 47.8072 -123.5608 259° West 392 451 30,300 -120 Descending Seattle Center
04:05PM 47.7883 -123.7108 259° West 392 451 30,400 120 Climbing Seattle Center
04:06PM 47.7700 -123.8725 260° West 395 455 30,600 -60 Climbing Seattle Center
04:07PM 47.7519 -124.0369 261° West 401 461 30,300 -120 Descending Seattle Center
04:08PM 47.7381 -124.1989 263° West 398 458 30,400 -180 Climbing Seattle Center
04:09PM 47.7231 -124.3686 263° West 408 470 30,000 -240 Descending Seattle Center
04:10PM 47.7058 -124.5575 262° West 447 514 30,000 -120 Level Seattle Center
04:11PM 47.6831 -124.7442 260° West 457 526 29,800  Descending Seattle Center
04:12PM 47.6575 -124.9269 258° West 455 524 30,000 120 Climbing Seattle Center
04:13PM 47.6294 -125.1147 258° West 461 531 30,100  Climbing Seattle Center
04:14PM 47.5903 -125.3292 255° West 456 525 30,000 -60 Descending Seattle Center
04:15PM 47.5456 -125.5036 249° West 466 536 30,000 -60 Level Seattle Center
04:16PM 47.4242 -125.5192 185° South 472 543 29,900  Descending Seattle Center
04:17PM 47.3856 -125.3428 108° East 484 557 30,000  Climbing Seattle Center
04:18PM 47.4875 -125.2411 34° Northeast 478 550 30,000  Level Seattle Center
04:19PM 47.6150 -125.2375 North 473 544 30,000 -60 Level Seattle Center
04:20PM 47.6878 -125.0822 55° Northeast 482 555 29,900 -60 Descending Seattle Center
04:21PM 47.7097 -124.8875 80° East 483 556 29,900  Level Seattle Center
04:22PM 47.7403 -124.6992 76° East 476 548 30,000  Climbing Seattle Center
04:23PM 47.7736 -124.4969 76° East 497 572 29,900  Descending Seattle Center
04:24PM 47.8064 -124.2953 76° East 506 582 30,000  Climbing Seattle Center
04:25PM 47.8450 -124.0519 77° East 508 585 29,900 -840 Descending Seattle Center
04:26PM 47.8767 -123.8492 77° East 508 585 28,300 -2,040 Descending Seattle Center
04:27PM 47.9092 -123.6453 77° East 509 586 25,800 -2,640 Descending Seattle Center
04:28PM 47.9425 -123.4322 77° East 502 578 23,000 -2,700 Descending Seattle Center
04:29PM 47.9739 -123.2411 76° East 485 558 20,400 -2,460 Descending Seattle Center
04:30PM 48.0006 -123.0597 78° East 456 525 18,000 -1,560 Descending Seattle Center
04:31PM 48.0222 -122.8947 79° East 403 464 17,300 -960 Descending Seattle Center
04:31PM 48.0006 -122.8228 114° Southeast 347 399 16,600 -1,380 Descending Seattle Center
04:32PM 47.9647 -122.7822 143° Southeast 344 396 15,900 -1,800 Descending Seattle Center
04:32PM 47.9353 -122.7558 149° Southeast 352 405 15,200 -1,800 Descending Seattle Center
04:33PM 47.8819 -122.7078 149° Southeast 342 394 14,100 -1,920 Descending Seattle Center
04:33PM 47.8508 -122.6833 152° Southeast 347 399 13,300 -1,920 Descending Seattle Center
04:34PM 47.7969 -122.6319 147° Southeast 338 389 12,200 -1,500 Descending Seattle Center
04:34PM 47.7669 -122.6042 148° Southeast 337 388 11,800 -1,020 Descending Seattle Center
04:35PM 47.7133 -122.5572 149° Southeast 322 371 11,200 -1,140 Descending Seattle Center
04:35PM 47.6928 -122.5394 150° Southeast 301 346 10,700 -1,140 Descending Seattle Center
04:36PM 47.6414 -122.4942 149° Southeast 308 354 10,100 -720 Descending Seattle Center
04:36PM 47.6206 -122.4808 157° South 293 337 10,000  Descending Seattle Center
04:37PM 47.5736 -122.4508 157° South 275 316 10,100  Climbing Seattle Center
04:37PM 47.5569 -122.4400 156° South 229 264 10,000 -900 Descending Seattle Center
04:38PM 47.5181 -122.4150 157° South 229 264 9,200 -1,380 Descending Seattle Center
04:38PM 47.5014 -122.4050 158° South 210 242 8,600 -1,920 Descending Seattle Center
04:39PM 47.4597 -122.3767 155° Southeast 218 251 7,300 -1,800 Descending Seattle Center
04:39PM 47.4397 -122.3636 156° South 214 246 6,600 -1,200 Descending Seattle Center
04:40PM 47.4094 -122.3431 155° Southeast 204 235 6,100 -840 Descending Seattle Center
04:41PM 47.3897 -122.3322 160° South 190 219 5,800 -1,380 Descending Seattle Center
04:41PM 47.3631 -122.3122 153° Southeast 187 215 4,700 -1,680 Descending Seattle Center
04:42PM 47.3414 -122.2997 159° South 180 207 4,100 -720 Descending Seattle Center
04:42PM 47.3133 -122.2808 155° Southeast 181 208 4,000 -720 Descending Seattle Center
04:43PM 47.2939 -122.2706 160° South 180 207 3,400 -1,140 Descending Seattle Center
04:43PM 47.2942 -122.2314 89° East 181 208 2,900 -1,020 Descending Seattle Center
04:44PM 47.3061 -122.2050 56° Northeast 182 209 2,300 -840 Descending Seattle Center
04:44PM 47.3217 -122.1719 55° Northeast 179 206 2,100 -300 Descending Seattle Center
04:45PM 47.3408 -122.1497 38° Northeast 172 198 2,000  Descending Seattle Center
04:45PM 47.3667 -122.1644 339° North 188 216 2,100  Climbing Seattle Center
04:46PM 47.3839 -122.1783 331° Northwest 188 216 2,000  Descending Seattle Center
04:46PM 47.4078 -122.1997 329° Northwest 174 200 2,100  Climbing Seattle Center
04:47PM 47.4217 -122.2131 327° Northwest 161 185 2,000 -240 Descending Seattle Center
04:47PM 47.4450 -122.2317 332° Northwest 160 184 1,900 -540 Descending Seattle Center
04:48PM 47.4614 -122.2467 328° Northwest 152 175 1,400 -840 Descending Seattle Center
04:48PM 47.4797 -122.2622 330° Northwest 149 171 1,100 -780 Descending Seattle Center
04:49PM 47.4922 -122.2722 332° Northwest 136 157 700 -840 Descending Seattle Center
04:49PM 47.5128 -122.2883 332° Northwest 136 157 300 -420 Descending Seattle Center
04:50PM 47.5414 -122.3125 330° Northwest 134 154 100 -240 Descending Seattle Center
04:52PM 47.5300 -122.3020 64° Northeast  Level Estimated
04:59PM 47.5300 -122.3020 64° Northeast  Level Estimated
05:00PM 47.5300 -122.3020 64° Northeast  Level Estimated
05:01PM 47.5300 -122.3020 64° Northeast  Level Estimated
05:02PM 47.5300 -122.3020 64° Northeast  Level Estimated
05:03PM 47.5300 -122.3020 64° Northeast  Level Estimated
05:04PM 47.5300 -122.3020 64° Northeast  Level Estimated
05:05PM 47.5300 -122.3020 64° Northeast  Level Estimated
05:06PM 47.5300 -122.3020 64° Northeast  Level Estimated
05:07PM 47.5300 -122.3020 64° Northeast  Level Estimated
05:08PM 47.5300 -122.3020 64° Northeast  Level Estimated
05:09PM 47.5300 -122.3020 64° Northeast  Level Estimated
05:10PM 47.5300 -122.3020 64° Northeast  Level Estimated
05:11PM 47.5300 -122.3020 64° Northeast  Level Estimated
05:12PM 47.5300 -122.3020 64° Northeast  Level Estimated
05:13PM 47.5300 -122.3020 64° Northeast  Level Estimated
05:14PM 47.5300 -122.3020 64° Northeast  Level Estimated
05:15PM 47.5300 -122.3020 64° Northeast  Level Estimated
05:16PM 47.5300 -122.3020 64° Northeast  Level Estimated
05:17PM 47.5300 -122.3020 64° Northeast  Level Estimated
05:18PM 47.5300 -122.3020 64° Northeast  Level Estimated
05:19PM 47.5300 -122.3020 64° Northeast  Level Estimated
05:20PM 47.5300 -122.3020 64° Northeast  Level Estimated
05:21PM 47.5300 -122.3020 64° Northeast  Level Estimated
05:22PM 47.5300 -122.3020 64° Northeast  Level Estimated
05:23PM 47.5300 -122.3020 64° Northeast  Level Estimated
05:24PM 47.5300 -122.3020 64° Northeast  Level Estimated
05:25PM 47.5300 -122.3020 64° Northeast  Level Estimated
05:26PM 47.5300 -122.3020 64° Northeast  Level Estimated
05:27PM 47.5300 -122.3020 64° Northeast  Level Estimated
05:28PM 47.5300 -122.3020 64° Northeast  Level Estimated
05:29PM 47.5300 -122.3020 64° Northeast  Level Estimated
05:30PM 47.5300 -122.3020 64° Northeast  Level Estimated
05:31PM 47.5300 -122.3020 64° Northeast  Level Estimated
05:32PM 47.5300 -122.3020 64° Northeast  Level Estimated
05:33PM 47.5300 -122.3020 64° Northeast  Level Estimated
05:34PM 47.5300 -122.3020 64° Northeast  Level Estimated
05:35PM 47.5300 -122.3020 64° Northeast  Level Estimated
05:36PM 47.5300 -122.3020 64° Northeast  Level Estimated
05:37PM 47.5300 -122.3020 64° Northeast  Level Estimated
05:38PM 47.5300 -122.3020 64° Northeast  Level Estimated
05:39PM 47.5300 -122.3020 64° Northeast  Level Estimated
05:40PM 47.5300 -122.3020 64° Northeast  Level Estimated
05:41PM 47.5300 -122.3020 64° Northeast  Level Estimated
05:42PM 47.5300 -122.3020 64° Northeast  Level Estimated
05:43PM 47.5300 -122.3020 64° Northeast  Level Estimated
05:44PM 47.5300 -122.3020 64° Northeast  Level Estimated
05:45PM 47.5300 -122.3020 64° Northeast  Level Estimated
05:46PM 47.5300 -122.3020 64° Northeast  Level Estimated
05:47PM 47.5300 -122.3020 64° Northeast  Level Estimated
05:48PM 47.5300 -122.3020 64° Northeast  Level Estimated
05:49PM 47.5300 -122.3020 64° Northeast  Level Estimated
05:50PM 47.5300 -122.3020 64° Northeast  Level Estimated
05:51PM 47.5300 -122.3020 64° Northeast  Level Estimated
05:52PM 47.5300 -122.3020 64° Northeast  Level Estimated
05:53PM 47.5300 -122.3020 64° Northeast  Level Estimated
05:54PM 47.5300 -122.3020 64° Northeast  Level Estimated
05:55PM 47.5300 -122.3020 64° Northeast  Level Estimated
05:56PM 47.5300 -122.3020 64° Northeast  Level Estimated
05:57PM 47.5300 -122.3020 64° Northeast  Level Estimated
05:58PM 47.5300 -122.3020 64° Northeast  Level Estimated
05:59PM 47.5300 -122.3020 64° Northeast  Level Estimated
06:00PM 47.5300 -122.3020 64° Northeast  Level Estimated
06:01PM 47.5300 -122.3020 64° Northeast  Level Estimated
06:02PM 47.5300 -122.3020 64° Northeast  Level Estimated
06:03PM 47.5300 -122.3020 64° Northeast  Level Estimated
06:04PM 47.5300 -122.3020 64° Northeast  Level Estimated
06:05PM 47.5300 -122.3020 64° Northeast  Level Estimated
06:06PM 47.5300 -122.3020 64° Northeast  Level Estimated
06:07PM 47.5300 -122.3020 64° Northeast  Level Estimated
06:08PM 47.5300 -122.3020 64° Northeast  Level Estimated
06:09PM 47.5300 -122.3020 64° Northeast  Level Estimated
06:10PM 47.5300 -122.3020 64° Northeast  Level Estimated
06:11PM 47.5300 -122.3020 64° Northeast  Level Estimated
06:12PM 47.5300 -122.3020 64° Northeast  Level Estimated
06:13PM 47.5300 -122.3020 64° Northeast  Level Estimated
06:14PM 47.5300 -122.3020 64° Northeast  Level Estimated
06:15PM 47.5300 -122.3020 64° Northeast  Level Estimated
06:16PM 47.5300 -122.3020 64° Northeast  Level Estimated
06:17PM 47.5300 -122.3020 64° Northeast  Level Estimated
06:18PM 47.5300 -122.3020 64° Northeast  Level Estimated
06:19PM 47.5300 -122.3020 64° Northeast  Level Estimated
06:20PM 47.5300 -122.3020 64° Northeast  Level Estimated
06:21PM 47.5300 -122.3020 64° Northeast  Level Estimated
06:22PM 47.5300 -122.3020 64° Northeast  Level Estimated
06:23PM 47.5300 -122.3020 64° Northeast  Level Estimated
06:24PM 47.5300 -122.3020 64° Northeast  Level Estimated
06:25PM 47.5300 -122.3020 64° Northeast  Level Estimated
06:26PM 47.5300 -122.3020 64° Northeast  Level Estimated
06:27PM 47.5300 -122.3020 64° Northeast  Level Estimated
06:28PM 47.5300 -122.3020 64° Northeast  Level Estimated
06:29PM 47.5300 -122.3020 64° Northeast  Level Estimated
06:30PM 47.5300 -122.3020 64° Northeast  Level Estimated
06:31PM 47.5300 -122.3020 64° Northeast  Level Estimated
06:32PM 47.5300 -122.3020 64° Northeast  Level Estimated
06:33PM 47.5300 -122.3020 64° Northeast  Level Estimated
06:34PM 47.5300 -122.3020 64° Northeast  Level Estimated
06:35PM 47.5300 -122.3020 64° Northeast  Level Estimated
06:36PM 47.5300 -122.3020 64° Northeast  Level Estimated
06:37PM 47.5300 -122.3020 64° Northeast  Level Estimated
06:38PM 47.5300 -122.3020 64° Northeast  Level Estimated
06:39PM 47.5300 -122.3020 64° Northeast  Level Estimated
06:40PM 47.5300 -122.3020 64° Northeast  Level Estimated
06:41PM 47.5300 -122.3020 64° Northeast  Level Estimated
06:42PM 47.5300 -122.3020 64° Northeast  Level Estimated
06:43PM 47.5300 -122.3020 64° Northeast  Level Estimated
06:44PM 47.5300 -122.3020 64° Northeast  Level Estimated
06:45PM 47.5300 -122.3020 64° Northeast  Level Estimated
06:46PM 47.5300 -122.3020 64° Northeast  Level Estimated
06:47PM 47.5300 -122.3020 64° Northeast  Level Estimated
06:48PM 47.5300 -122.3020 64° Northeast  Level Estimated
06:49PM 47.5300 -122.3020 64° Northeast  Level Estimated
06:50PM 47.5300 -122.3020 64° Northeast  Level Estimated
06:51PM 47.5300 -122.3020 64° Northeast  Level Estimated
06:52PM 47.5300 -122.3020 64° Northeast  Level Estimated
06:53PM 47.5300 -122.3020 64° Northeast  Level Estimated
06:54PM 47.5300 -122.3020 64° Northeast  Level Estimated
06:55PM 47.5300 -122.3020 64° Northeast  Level Estimated
06:56PM 47.5300 -122.3020 64° Northeast  Level Estimated
06:57PM 47.5300 -122.3020 64° Northeast  Level Estimated
06:58PM 47.5300 -122.3020 64° Northeast  Level Estimated
06:59PM 47.5300 -122.3020 64° Northeast  Level Estimated
07:00PM 47.5300 -122.3020 64° Northeast  Level Estimated
07:01PM 47.5300 -122.3020 64° Northeast  Level Estimated
07:02PM 47.5300 -122.3020 64° Northeast  Level Estimated
07:03PM 47.5300 -122.3020 64° Northeast  Level Estimated
07:04PM 47.5300 -122.3020 64° Northeast  Level Estimated
07:05PM 47.5300 -122.3020 64° Northeast  Level Estimated
07:06PM 47.5300 -122.3020 64° Northeast  Level Estimated
07:07PM 47.5300 -122.3020 64° Northeast  Level Estimated
07:08PM 47.5300 -122.3020 64° Northeast  Level Estimated
07:09PM 47.5300 -122.3020 64° Northeast  Level Estimated
07:10PM 47.5300 -122.3020 64° Northeast  Level Estimated
07:11PM 47.5300 -122.3020 64° Northeast  Level Estimated
07:12PM 47.5300 -122.3020 64° Northeast  Level Estimated
07:13PM 47.5300 -122.3020 64° Northeast  Level Estimated
07:14PM 47.5300 -122.3020 64° Northeast  Level Estimated
07:15PM 47.5300 -122.3020 64° Northeast  Level Estimated
07:16PM 47.5300 -122.3020 64° Northeast  Level Estimated
07:17PM 47.5300 -122.3020 64° Northeast  Level Estimated
07:18PM 47.5300 -122.3020 64° Northeast  Level Estimated
07:19PM 47.5300 -122.3020 64° Northeast  Level Estimated
07:20PM 47.5300 -122.3020 64° Northeast  Level Estimated
07:21PM 47.5300 -122.3020 64° Northeast  Level Estimated
07:22PM 47.5300 -122.3020 64° Northeast  Level Estimated
07:23PM 47.5300 -122.3020 64° Northeast  Level Estimated
07:24PM 47.5300 -122.3020 64° Northeast  Level Estimated
07:25PM 47.5300 -122.3020 64° Northeast  Level Estimated
07:26PM 47.5300 -122.3020 64° Northeast  Level Estimated